Weather at Oslo Heliport, Rikshospitalet

Public forecast

Using degrees Celsius for public forecast. Weather courtesy of forecast.io.

Closest aviation weather report (METAR) to Oslo Heliport, Rikshospitalet

Closest report is Oslo, Fornebu Airport, 4.3 nm (8.0 km) SW. Retrieved 2021/04/12 00:50 UTC (21 minutes ago):

ENFB 120050Z AUTO 02029KT 9999NDV FEW033/// ///// Q//// W///S5

Closest aviation forecast (TAF) to Oslo Heliport, Rikshospitalet

Closest forecast is Oslo Gardermoen Airport, 18.7 nm (34.6 km) NE. Retrieved 2021-04-12 00:57 UTC (14 minutes ago):

TAF ENGM 112300Z 1200/1224 04012KT 8000 -SNRA SCT008 BKN015 TEMPO 1200/1215 1200 SN VV004 TEMPO 1215/1224 1200 SHSN BKN008 FEW020CB